createdAt,value
2022-10-08T00:01:03.010Z,84.95
2022-10-08T00:03:33.150Z,85.26
2022-10-08T00:06:04.153Z,85.67
2022-10-08T00:08:34.052Z,85.55
2022-10-08T00:11:04.201Z,85.22
2022-10-08T00:13:40.861Z,85.47
2022-10-08T00:16:24.125Z,86.08
2022-10-08T00:18:53.612Z,85.84
2022-10-08T00:21:23.851Z,86.37
2022-10-08T00:23:53.400Z,85.89
2022-10-08T00:26:25.938Z,86.55
2022-10-08T00:28:55.889Z,86.88
2022-10-08T00:31:26.399Z,87.29
2022-10-08T00:33:56.491Z,86.81
2022-10-08T00:36:25.809Z,86.81
2022-10-08T00:39:05.543Z,86.80
2022-10-08T00:41:34.964Z,86.31
2022-10-08T00:44:03.878Z,87.20
2022-10-08T00:46:42.080Z,86.62
2022-10-08T00:49:11.521Z,87.14
2022-10-08T00:51:44.260Z,87.42
2022-10-08T00:54:13.029Z,86.62
2022-10-08T00:56:41.589Z,87.53
2022-10-08T00:59:10.655Z,87.58
2022-10-08T01:01:41.239Z,87.28
2022-10-08T01:04:09.713Z,87.39
2022-10-08T01:06:53.732Z,87.39
2022-10-08T01:09:32.100Z,87.49
2022-10-08T01:12:17.852Z,87.68
2022-10-08T01:14:53.193Z,86.88
2022-10-08T01:17:33.685Z,87.65
2022-10-08T01:20:18.822Z,87.94
2022-10-08T01:23:03.813Z,87.58
2022-10-08T01:25:33.317Z,87.90
2022-10-08T01:28:13.986Z,87.02
2022-10-08T01:30:54.548Z,87.21
2022-10-08T01:33:27.149Z,87.44
2022-10-08T01:35:58.564Z,87.12
2022-10-08T01:38:30.400Z,87.63
2022-10-08T01:41:00.387Z,88.36
2022-10-08T01:43:31.821Z,88.13
2022-10-08T01:46:05.805Z,87.79
2022-10-08T01:48:36.016Z,88.35
2022-10-08T01:51:17.860Z,88.39
2022-10-08T01:53:48.075Z,87.92
2022-10-08T01:56:19.224Z,88.13
2022-10-08T01:58:58.141Z,88.02
2022-10-08T02:01:30.422Z,88.16
2022-10-08T02:04:16.561Z,88.54
2022-10-08T02:06:49.151Z,87.53
2022-10-08T02:09:16.812Z,88.22
2022-10-08T02:11:43.801Z,88.15
2022-10-08T02:14:11.792Z,88.33
2022-10-08T02:16:46.977Z,88.16
2022-10-08T02:19:42.167Z,88.33
2022-10-08T02:22:11.222Z,88.39
2022-10-08T02:24:49.789Z,87.24
2022-10-08T02:27:19.487Z,88.19
2022-10-08T02:29:58.118Z,87.68
2022-10-08T02:32:34.229Z,87.58
2022-10-08T02:35:18.356Z,87.94
2022-10-08T02:38:08.779Z,87.15
2022-10-08T02:40:41.159Z,87.00
2022-10-08T02:43:16.271Z,88.07
2022-10-08T02:45:49.886Z,87.36
2022-10-08T02:48:25.173Z,87.24
2022-10-08T02:50:55.256Z,86.82
2022-10-08T02:53:24.087Z,87.44
2022-10-08T02:56:04.704Z,87.06
2022-10-08T02:58:32.397Z,87.47
2022-10-08T03:01:08.821Z,86.92
2022-10-08T03:03:45.702Z,86.68
2022-10-08T03:06:14.783Z,86.93
2022-10-08T03:08:46.210Z,87.49
2022-10-08T03:11:13.957Z,87.03
2022-10-08T03:13:45.148Z,86.86
2022-10-08T03:16:16.205Z,86.43
2022-10-08T03:18:44.859Z,86.90
2022-10-08T03:21:14.383Z,87.47
2022-10-08T03:23:41.922Z,86.86
2022-10-08T03:26:08.755Z,86.17
2022-10-08T03:28:35.711Z,86.66
2022-10-08T03:31:06.614Z,86.59
2022-10-08T03:33:34.620Z,86.24
2022-10-08T03:36:01.772Z,86.55
2022-10-08T03:38:29.053Z,87.00
2022-10-08T03:40:57.515Z,86.43
2022-10-08T03:43:24.920Z,85.65
2022-10-08T03:45:53.500Z,86.01
2022-10-08T03:48:22.526Z,86.06
2022-10-08T03:50:57.048Z,85.75
2022-10-08T03:53:25.203Z,86.69
2022-10-08T03:55:52.748Z,86.69
2022-10-08T03:58:21.236Z,85.94
2022-10-08T04:01:03.908Z,86.81
2022-10-08T04:03:32.097Z,86.71
2022-10-08T04:05:59.411Z,86.35
2022-10-08T04:08:26.732Z,86.28
2022-10-08T04:10:54.205Z,85.54
2022-10-08T04:13:22.379Z,86.29
2022-10-08T04:15:50.819Z,86.09
2022-10-08T04:18:18.560Z,86.76
2022-10-08T04:20:45.496Z,85.51
2022-10-08T04:23:12.593Z,85.83
2022-10-08T04:25:49.608Z,86.41
2022-10-08T04:28:16.632Z,87.32
2022-10-08T04:30:43.978Z,86.75
2022-10-08T04:33:11.081Z,86.82
2022-10-08T04:35:38.722Z,87.04
2022-10-08T04:38:05.637Z,86.17
2022-10-08T04:40:32.550Z,86.97
2022-10-08T04:42:59.405Z,86.24
2022-10-08T04:45:26.324Z,86.47
2022-10-08T04:47:53.424Z,86.48
2022-10-08T04:50:20.352Z,86.11
2022-10-08T04:52:47.885Z,86.83
2022-10-08T04:55:15.012Z,87.04
2022-10-08T04:57:41.892Z,86.33
2022-10-08T05:00:24.210Z,86.69
2022-10-08T05:02:51.532Z,87.08
2022-10-08T05:05:19.106Z,87.08
2022-10-08T05:07:46.017Z,86.95
2022-10-08T05:10:13.169Z,86.58
2022-10-08T05:12:40.244Z,86.65
2022-10-08T05:15:07.815Z,86.56
2022-10-08T05:17:35.150Z,87.00
2022-10-08T05:20:02.541Z,86.00
2022-10-08T05:22:29.512Z,85.95
2022-10-08T05:24:56.450Z,86.74
2022-10-08T05:27:23.383Z,86.99
2022-10-08T05:29:50.331Z,86.43
2022-10-08T05:32:17.461Z,86.17
2022-10-08T05:34:44.445Z,86.82
2022-10-08T05:37:11.357Z,86.65
2022-10-08T05:39:38.383Z,87.00
2022-10-08T05:42:05.351Z,86.22
2022-10-08T05:44:37.247Z,86.63
2022-10-08T05:47:04.843Z,86.78
2022-10-08T05:49:32.163Z,86.87
2022-10-08T05:51:59.070Z,87.15
2022-10-08T05:54:26.193Z,86.66
2022-10-08T05:56:53.125Z,86.41
2022-10-08T05:59:43.714Z,86.19
2022-10-08T06:02:31.166Z,87.01
2022-10-08T06:05:18.140Z,86.60
2022-10-08T06:08:05.036Z,86.70
2022-10-08T06:10:51.948Z,87.17
2022-10-08T06:13:39.637Z,86.97
2022-10-08T06:16:29.556Z,87.19
2022-10-08T06:19:17.143Z,87.02
2022-10-08T06:22:04.312Z,86.52
2022-10-08T06:24:51.398Z,86.99
2022-10-08T06:27:38.261Z,87.05
2022-10-08T06:30:25.590Z,87.18
2022-10-08T06:33:12.544Z,86.77
2022-10-08T06:35:59.395Z,87.06
2022-10-08T06:38:46.393Z,86.39
2022-10-08T06:41:33.327Z,87.20
2022-10-08T06:44:20.933Z,86.17
2022-10-08T06:47:07.865Z,86.14
2022-10-08T06:49:55.220Z,86.76
2022-10-08T06:52:42.200Z,86.76
2022-10-08T06:55:29.409Z,86.47
2022-10-08T06:58:16.336Z,86.83
2022-10-08T07:01:03.285Z,86.90
2022-10-08T07:03:50.426Z,86.47
2022-10-08T07:06:38.167Z,86.41
2022-10-08T07:09:25.411Z,86.59
2022-10-08T07:12:12.535Z,86.04
2022-10-08T07:14:59.511Z,85.84
2022-10-08T07:17:46.548Z,86.33
2022-10-08T07:20:33.399Z,85.81
2022-10-08T07:23:20.415Z,86.18
2022-10-08T07:26:20.760Z,85.62
2022-10-08T07:29:18.006Z,86.01
2022-10-08T07:32:04.806Z,85.20
2022-10-08T07:34:51.782Z,85.14
2022-10-08T07:37:38.959Z,84.99
2022-10-08T07:40:26.484Z,85.10
2022-10-08T07:43:17.643Z,85.14
2022-10-08T07:46:06.565Z,85.40
2022-10-08T07:48:53.664Z,84.94
2022-10-08T07:51:41.156Z,85.08
2022-10-08T07:54:28.888Z,84.63
2022-10-08T07:57:15.729Z,84.49
2022-10-08T08:00:02.618Z,84.35
2022-10-08T08:02:59.354Z,84.99
2022-10-08T08:05:46.324Z,84.30
2022-10-08T08:08:33.103Z,85.03
2022-10-08T08:11:21.764Z,83.88
2022-10-08T08:14:09.244Z,83.97
2022-10-08T08:16:56.288Z,83.56
2022-10-08T08:19:43.294Z,84.50
2022-10-08T08:22:30.196Z,83.34
2022-10-08T08:25:17.188Z,83.90
2022-10-08T08:28:04.202Z,83.81
2022-10-08T08:30:51.116Z,83.46
2022-10-08T08:33:17.988Z,83.74
2022-10-08T08:35:52.887Z,83.42
2022-10-08T08:38:39.881Z,83.79
2022-10-08T08:41:45.755Z,82.74
2022-10-08T08:44:40.903Z,83.41
2022-10-08T08:47:54.291Z,83.14
2022-10-08T08:50:48.981Z,83.36
2022-10-08T08:53:36.259Z,82.54
2022-10-08T08:56:25.751Z,82.67
2022-10-08T08:59:25.813Z,82.59
2022-10-08T09:02:18.232Z,82.67
2022-10-08T09:05:13.222Z,82.86
2022-10-08T09:08:07.993Z,82.20
2022-10-08T09:11:17.214Z,82.45
2022-10-08T09:14:19.151Z,82.50
2022-10-08T09:17:06.835Z,81.84
2022-10-08T09:20:00.441Z,80.58
2022-10-08T09:22:55.695Z,80.81
2022-10-08T09:25:45.803Z,80.57
2022-10-08T09:28:58.262Z,80.21
2022-10-08T09:31:47.213Z,79.60
2022-10-08T09:34:34.328Z,79.96
2022-10-08T09:37:21.235Z,79.89
2022-10-08T09:40:38.448Z,79.43
2022-10-08T09:43:37.608Z,78.64
2022-10-08T09:46:32.155Z,78.35
2022-10-08T09:49:55.584Z,77.95
2022-10-08T09:52:47.251Z,77.85
2022-10-08T09:55:41.340Z,76.62
2022-10-08T09:58:38.320Z,76.43
2022-10-08T10:01:35.703Z,76.46
2022-10-08T10:04:23.562Z,75.85
2022-10-08T10:07:14.125Z,75.58
2022-10-08T10:10:03.685Z,74.18
2022-10-08T10:12:54.580Z,73.77
2022-10-08T10:15:46.970Z,74.64
2022-10-08T10:18:53.785Z,74.62
2022-10-08T10:21:49.787Z,73.61
2022-10-08T10:24:48.720Z,74.29
2022-10-08T10:27:43.667Z,72.79
2022-10-08T10:30:37.306Z,72.09
2022-10-08T10:33:33.628Z,72.32
2022-10-08T10:36:37.623Z,72.30
2022-10-08T10:39:28.380Z,71.27
2022-10-08T10:42:24.136Z,71.32
2022-10-08T10:45:11.101Z,71.09
2022-10-08T10:47:57.925Z,70.52
2022-10-08T10:51:08.285Z,69.82
2022-10-08T10:54:02.164Z,69.85
2022-10-08T10:56:56.780Z,69.07
2022-10-08T11:00:06.050Z,69.05
2022-10-08T11:03:12.062Z,68.90
2022-10-08T11:06:03.099Z,68.56
2022-10-08T11:09:07.912Z,68.51
2022-10-08T11:12:32.996Z,68.01
2022-10-08T11:15:25.679Z,67.75
2022-10-08T11:18:27.556Z,67.44
2022-10-08T11:21:45.839Z,67.77
2022-10-08T11:24:47.568Z,67.28
2022-10-08T11:27:59.249Z,66.81
2022-10-08T11:31:02.420Z,66.36
2022-10-08T11:33:50.327Z,65.19
2022-10-08T11:36:46.196Z,64.59
2022-10-08T11:39:52.682Z,65.20
2022-10-08T11:42:59.430Z,64.48
2022-10-08T11:45:51.878Z,63.86
2022-10-08T11:48:54.242Z,63.84
2022-10-08T11:51:40.995Z,63.04
2022-10-08T11:54:51.652Z,62.77
2022-10-08T11:58:07.647Z,63.40
2022-10-08T12:01:00.025Z,62.72
2022-10-08T12:03:50.893Z,61.06
2022-10-08T12:06:46.747Z,61.40
2022-10-08T12:09:44.237Z,61.10
2022-10-08T12:12:34.433Z,59.88
2022-10-08T12:15:21.470Z,59.61
2022-10-08T12:18:31.092Z,59.44
2022-10-08T12:21:46.939Z,59.47
2022-10-08T12:24:59.631Z,59.45
2022-10-08T12:27:52.003Z,58.19
2022-10-08T12:30:39.024Z,58.15
2022-10-08T12:33:29.199Z,57.67
2022-10-08T12:36:27.991Z,57.08
2022-10-08T12:40:00.188Z,57.65
2022-10-08T12:42:53.066Z,57.39
2022-10-08T12:45:54.265Z,57.03
2022-10-08T12:49:07.537Z,57.04
2022-10-08T12:52:20.826Z,56.94
2022-10-08T12:55:13.608Z,56.64
2022-10-08T12:58:01.415Z,56.64
2022-10-08T13:00:54.248Z,57.05
2022-10-08T13:03:41.605Z,56.09
2022-10-08T13:06:54.684Z,56.36
2022-10-08T13:09:52.975Z,56.19
2022-10-08T13:12:39.840Z,55.66
2022-10-08T13:15:27.035Z,55.53
2022-10-08T13:18:13.998Z,55.83
2022-10-08T13:21:15.882Z,55.65
2022-10-08T13:24:04.474Z,55.00
2022-10-08T13:27:11.232Z,55.08
2022-10-08T13:29:58.343Z,55.24
2022-10-08T13:32:50.513Z,55.19
2022-10-08T13:35:43.701Z,55.51
2022-10-08T13:38:41.211Z,55.10
2022-10-08T13:41:40.848Z,54.90
2022-10-08T13:44:29.616Z,54.98
2022-10-08T13:47:16.808Z,54.76
2022-10-08T13:50:04.375Z,54.83
2022-10-08T13:52:54.119Z,55.02
2022-10-08T13:55:52.005Z,55.25
2022-10-08T13:58:41.064Z,54.79
2022-10-08T14:01:27.996Z,54.89
2022-10-08T14:04:14.923Z,54.71
2022-10-08T14:07:04.372Z,54.63
2022-10-08T14:09:51.595Z,55.06
2022-10-08T14:12:43.582Z,54.75
2022-10-08T14:15:33.138Z,54.83
2022-10-08T14:18:20.086Z,54.67
2022-10-08T14:21:11.320Z,54.75
2022-10-08T14:23:58.207Z,55.28
2022-10-08T14:26:45.151Z,54.79
2022-10-08T14:29:31.991Z,55.22
2022-10-08T14:32:22.989Z,54.70
2022-10-08T14:35:09.900Z,54.49
2022-10-08T14:37:57.587Z,54.98
2022-10-08T14:40:44.564Z,55.83
2022-10-08T14:43:31.894Z,55.67
2022-10-08T14:46:19.261Z,55.68
2022-10-08T14:49:06.199Z,55.03
2022-10-08T14:51:53.153Z,55.72
2022-10-08T14:54:40.414Z,55.28
2022-10-08T14:57:27.456Z,55.65
2022-10-08T15:00:14.464Z,56.06
2022-10-08T15:03:01.307Z,55.70
2022-10-08T15:05:48.249Z,55.37
2022-10-08T15:08:35.151Z,55.37
2022-10-08T15:11:23.657Z,55.88
2022-10-08T15:14:13.082Z,56.10
2022-10-08T15:16:59.956Z,55.62
2022-10-08T15:19:46.768Z,55.91
2022-10-08T15:22:33.593Z,55.70
2022-10-08T15:25:20.493Z,55.84
2022-10-08T15:28:07.546Z,55.75
2022-10-08T15:30:54.477Z,56.03
2022-10-08T15:33:41.435Z,56.27
2022-10-08T15:36:42.292Z,57.20
2022-10-08T15:39:37.639Z,56.98
2022-10-08T15:42:24.525Z,56.88
2022-10-08T15:45:11.447Z,57.24
2022-10-08T15:47:58.371Z,57.18
2022-10-08T15:50:45.299Z,56.75
2022-10-08T15:53:32.409Z,57.54
2022-10-08T15:56:19.337Z,57.34
2022-10-08T15:59:06.139Z,57.97
2022-10-08T16:01:53.024Z,57.37
2022-10-08T16:04:39.943Z,57.41
2022-10-08T16:07:29.801Z,58.40
2022-10-08T16:10:16.681Z,58.63
2022-10-08T16:13:03.709Z,58.23
2022-10-08T16:15:56.772Z,58.32
2022-10-08T16:18:43.672Z,58.94
2022-10-08T16:21:32.908Z,58.75
2022-10-08T16:24:20.732Z,58.81
2022-10-08T16:27:07.687Z,58.45
2022-10-08T16:29:54.654Z,59.78
2022-10-08T16:32:41.568Z,58.97
2022-10-08T16:35:28.466Z,58.82
2022-10-08T16:38:15.355Z,59.77
2022-10-08T16:41:02.376Z,59.86
2022-10-08T16:43:49.325Z,60.12
2022-10-08T16:46:40.380Z,59.51
2022-10-08T16:49:34.850Z,58.96
2022-10-08T16:52:25.328Z,59.95
2022-10-08T16:55:12.231Z,59.62
2022-10-08T16:57:59.128Z,59.49
2022-10-08T17:00:45.944Z,60.39
2022-10-08T17:03:32.801Z,59.38
2022-10-08T17:06:19.807Z,60.09
2022-10-08T17:09:07.049Z,59.71
2022-10-08T17:11:54.264Z,60.84
2022-10-08T17:14:41.128Z,60.41
2022-10-08T17:17:28.041Z,60.54
2022-10-08T17:20:14.973Z,61.05
2022-10-08T17:23:02.033Z,60.84
2022-10-08T17:25:48.986Z,60.51
2022-10-08T17:28:35.859Z,60.56
2022-10-08T17:31:24.729Z,60.66
2022-10-08T17:34:12.207Z,61.56
2022-10-08T17:37:01.464Z,61.77
2022-10-08T17:39:48.540Z,61.78
2022-10-08T17:42:35.529Z,61.06
2022-10-08T17:45:22.363Z,61.63
2022-10-08T17:48:09.528Z,61.00
2022-10-08T17:50:57.031Z,61.56
2022-10-08T17:53:44.073Z,62.12
2022-10-08T17:56:33.647Z,61.35
2022-10-08T17:59:20.808Z,61.61
2022-10-08T18:02:07.732Z,62.31
2022-10-08T18:04:54.877Z,62.38
2022-10-08T18:07:41.718Z,62.21
2022-10-08T18:10:29.518Z,62.58
2022-10-08T18:13:16.468Z,62.60
2022-10-08T18:16:03.416Z,62.04
2022-10-08T18:18:50.632Z,62.44
2022-10-08T18:21:38.843Z,62.22
2022-10-08T18:24:25.797Z,62.38
2022-10-08T18:27:12.759Z,63.10
2022-10-08T18:29:59.678Z,62.94
2022-10-08T18:32:46.853Z,62.72
2022-10-08T18:35:33.909Z,62.51
2022-10-08T18:38:20.806Z,63.00
2022-10-08T18:41:07.749Z,62.77
2022-10-08T18:43:55.231Z,63.04
2022-10-08T18:46:43.523Z,62.65
2022-10-08T18:49:33.134Z,62.60
2022-10-08T18:52:21.674Z,63.47
2022-10-08T18:55:09.008Z,62.96
2022-10-08T18:57:56.130Z,63.47
2022-10-08T19:00:43.164Z,63.33
2022-10-08T19:03:30.087Z,63.46
2022-10-08T19:06:17.093Z,63.80
2022-10-08T19:09:04.605Z,63.53
2022-10-08T19:11:53.996Z,63.33
2022-10-08T19:14:42.616Z,63.09
2022-10-08T19:17:29.658Z,63.67
2022-10-08T19:20:16.523Z,63.54
2022-10-08T19:23:03.362Z,64.03
2022-10-08T19:25:50.344Z,63.65
2022-10-08T19:28:37.334Z,63.84
2022-10-08T19:31:37.526Z,63.66
2022-10-08T19:34:27.099Z,64.23
2022-10-08T19:37:14.048Z,64.11
2022-10-08T19:40:01.100Z,63.97
2022-10-08T19:42:48.099Z,64.76
2022-10-08T19:45:35.185Z,64.20
2022-10-08T19:48:22.105Z,64.66
2022-10-08T19:51:08.932Z,64.61
2022-10-08T19:53:56.557Z,64.38
2022-10-08T19:56:43.472Z,64.82
2022-10-08T19:59:31.729Z,64.82
2022-10-08T20:02:18.590Z,64.69
2022-10-08T20:05:05.720Z,64.93
2022-10-08T20:07:52.504Z,65.15
2022-10-08T20:10:39.648Z,64.74
2022-10-08T20:13:26.435Z,65.25
2022-10-08T20:16:13.364Z,65.35
2022-10-08T20:19:00.378Z,64.90
2022-10-08T20:21:53.460Z,65.64
2022-10-08T20:24:40.468Z,65.34
2022-10-08T20:27:27.473Z,65.70
2022-10-08T20:30:14.279Z,65.71
2022-10-08T20:33:01.308Z,65.68
2022-10-08T20:35:48.092Z,65.45
2022-10-08T20:38:35.130Z,65.55
2022-10-08T20:41:25.455Z,65.97
2022-10-08T20:44:15.111Z,65.72
2022-10-08T20:47:02.218Z,65.94
2022-10-08T20:49:49.354Z,66.23
2022-10-08T20:52:36.622Z,66.21
2022-10-08T20:55:24.966Z,66.74
2022-10-08T20:58:11.830Z,66.45
2022-10-08T21:00:58.875Z,66.57
2022-10-08T21:03:45.971Z,66.54
2022-10-08T21:06:38.940Z,66.65
2022-10-08T21:09:26.382Z,67.37
2022-10-08T21:12:13.419Z,66.78
2022-10-08T21:15:00.410Z,67.21
2022-10-08T21:17:47.440Z,67.18
2022-10-08T21:20:34.367Z,67.38
2022-10-08T21:23:21.266Z,67.21
2022-10-08T21:26:08.268Z,67.24
2022-10-08T21:28:55.197Z,67.69
2022-10-08T21:31:43.303Z,67.51
2022-10-08T21:34:32.433Z,67.53
2022-10-08T21:37:19.392Z,67.45
2022-10-08T21:40:06.366Z,67.82
2022-10-08T21:42:53.372Z,67.97
2022-10-08T21:45:40.447Z,67.85
2022-10-08T21:48:27.257Z,67.87
2022-10-08T21:51:30.612Z,68.01
2022-10-08T21:54:19.783Z,68.01
2022-10-08T21:57:06.799Z,67.54
2022-10-08T21:59:54.056Z,68.12
2022-10-08T22:02:41.229Z,68.24
2022-10-08T22:05:29.935Z,68.31
2022-10-08T22:08:17.113Z,68.35
2022-10-08T22:11:03.968Z,68.47
2022-10-08T22:13:51.029Z,68.78
2022-10-08T22:16:39.778Z,68.93
2022-10-08T22:19:26.734Z,68.70
2022-10-08T22:22:13.567Z,68.73
2022-10-08T22:25:00.519Z,68.84
2022-10-08T22:27:47.474Z,68.90
2022-10-08T22:30:34.569Z,68.94
2022-10-08T22:33:21.939Z,69.15
2022-10-08T22:36:08.975Z,69.14
2022-10-08T22:38:58.280Z,69.01
2022-10-08T22:41:47.737Z,68.82
2022-10-08T22:44:34.568Z,68.91
2022-10-08T22:47:21.511Z,69.12
2022-10-08T22:50:08.445Z,68.97
2022-10-08T22:52:55.510Z,68.97
2022-10-08T22:55:42.348Z,69.11
2022-10-08T22:58:29.246Z,69.27
2022-10-08T23:01:23.554Z,69.31
2022-10-08T23:04:11.689Z,69.04
2022-10-08T23:06:58.628Z,68.93
2022-10-08T23:09:46.552Z,69.17
2022-10-08T23:12:33.380Z,68.47
2022-10-08T23:15:20.328Z,68.99
2022-10-08T23:18:07.428Z,68.80
2022-10-08T23:20:55.986Z,69.03
2022-10-08T23:23:42.924Z,69.21
2022-10-08T23:26:30.252Z,69.36
2022-10-08T23:29:19.540Z,69.33
2022-10-08T23:32:06.558Z,69.31
2022-10-08T23:34:53.484Z,69.38
2022-10-08T23:37:40.754Z,69.23
2022-10-08T23:40:27.879Z,69.17
2022-10-08T23:43:14.952Z,69.53
2022-10-08T23:46:02.092Z,69.51
2022-10-08T23:48:49.272Z,69.41
2022-10-08T23:51:37.580Z,69.36
2022-10-08T23:54:24.622Z,69.27
2022-10-08T23:57:11.431Z,69.14
2022-10-08T23:59:58.416Z,69.32
